createdAt,value
2022-08-26T00:02:13.661Z,94.92
2022-08-26T00:04:44.680Z,95.00
2022-08-26T00:07:14.610Z,95.07
2022-08-26T00:09:47.346Z,95.00
2022-08-26T00:12:17.041Z,95.24
2022-08-26T00:14:47.142Z,95.20
2022-08-26T00:17:16.540Z,95.30
2022-08-26T00:19:46.066Z,95.47
2022-08-26T00:22:20.265Z,95.44
2022-08-26T00:24:52.673Z,95.59
2022-08-26T00:27:22.061Z,95.56
2022-08-26T00:29:51.673Z,95.70
2022-08-26T00:32:21.078Z,95.84
2022-08-26T00:34:50.338Z,95.51
2022-08-26T00:37:19.990Z,95.78
2022-08-26T00:39:49.498Z,95.98
2022-08-26T00:42:20.474Z,95.99
2022-08-26T00:44:50.792Z,96.01
2022-08-26T00:47:31.055Z,96.21
2022-08-26T00:50:03.144Z,96.22
2022-08-26T00:52:33.178Z,96.44
2022-08-26T00:55:10.396Z,96.28
2022-08-26T00:57:42.217Z,96.58
2022-08-26T01:00:15.905Z,96.65
2022-08-26T01:02:47.477Z,96.56
2022-08-26T01:05:17.638Z,96.74
2022-08-26T01:07:47.829Z,96.88
2022-08-26T01:10:23.259Z,96.51
2022-08-26T01:13:00.607Z,96.81
2022-08-26T01:15:35.502Z,96.90
2022-08-26T01:18:07.389Z,97.02
2022-08-26T01:20:47.324Z,96.90
2022-08-26T01:23:18.248Z,97.22
2022-08-26T01:25:56.235Z,96.96
2022-08-26T01:28:30.486Z,96.94
2022-08-26T01:31:02.061Z,97.26
2022-08-26T01:33:42.026Z,97.23
2022-08-26T01:36:13.440Z,97.25
2022-08-26T01:38:44.782Z,97.00
2022-08-26T01:41:19.650Z,96.99
2022-08-26T01:43:55.565Z,97.27
2022-08-26T01:46:27.265Z,97.29
2022-08-26T01:49:01.281Z,97.26
2022-08-26T01:51:37.281Z,97.29
2022-08-26T01:54:12.084Z,97.00
2022-08-26T01:56:43.551Z,97.00
2022-08-26T01:59:16.377Z,97.26
2022-08-26T02:01:47.753Z,97.17
2022-08-26T02:04:21.370Z,97.30
2022-08-26T02:06:51.550Z,97.12
2022-08-26T02:09:22.043Z,96.91
2022-08-26T02:11:52.453Z,97.17
2022-08-26T02:14:26.895Z,97.46
2022-08-26T02:16:57.114Z,96.98
2022-08-26T02:19:30.457Z,97.33
2022-08-26T02:22:04.205Z,97.13
2022-08-26T02:24:50.532Z,97.15
2022-08-26T02:27:23.752Z,97.22
2022-08-26T02:29:57.709Z,97.21
2022-08-26T02:32:27.686Z,97.08
2022-08-26T02:34:57.065Z,97.12
2022-08-26T02:37:30.903Z,97.38
2022-08-26T02:40:02.188Z,97.21
2022-08-26T02:42:32.653Z,97.27
2022-08-26T02:45:02.589Z,97.32
2022-08-26T02:47:33.463Z,97.01
2022-08-26T02:50:03.086Z,97.19
2022-08-26T02:52:32.469Z,97.35
2022-08-26T02:55:03.168Z,97.21
2022-08-26T02:57:32.719Z,97.20
2022-08-26T03:00:02.899Z,97.42
2022-08-26T03:02:32.135Z,97.49
2022-08-26T03:05:02.195Z,97.39
2022-08-26T03:07:31.866Z,97.48
2022-08-26T03:10:08.393Z,97.08
2022-08-26T03:12:38.641Z,97.40
2022-08-26T03:15:17.670Z,97.49
2022-08-26T03:17:49.216Z,97.65
2022-08-26T03:20:20.400Z,97.51
2022-08-26T03:22:51.486Z,97.54
2022-08-26T03:25:23.113Z,97.53
2022-08-26T03:27:54.060Z,97.37
2022-08-26T03:30:45.437Z,97.59
2022-08-26T03:33:16.231Z,97.58
2022-08-26T03:35:47.827Z,97.86
2022-08-26T03:38:25.105Z,97.88
2022-08-26T03:40:56.300Z,97.85
2022-08-26T03:43:27.606Z,97.66
2022-08-26T03:45:56.861Z,97.92
2022-08-26T03:48:26.687Z,97.80
2022-08-26T03:50:56.158Z,98.01
2022-08-26T03:53:26.862Z,97.80
2022-08-26T03:55:57.840Z,97.94
2022-08-26T03:58:27.173Z,98.07
2022-08-26T04:00:56.410Z,98.22
2022-08-26T04:03:40.218Z,98.33
2022-08-26T04:06:09.914Z,98.37
2022-08-26T04:08:39.484Z,98.30
2022-08-26T04:11:10.579Z,98.18
2022-08-26T04:13:39.973Z,98.36
2022-08-26T04:16:09.557Z,98.07
2022-08-26T04:18:44.476Z,98.46
2022-08-26T04:21:16.483Z,98.68
2022-08-26T04:23:47.641Z,98.72
2022-08-26T04:26:21.006Z,98.66
2022-08-26T04:28:53.283Z,98.64
2022-08-26T04:31:23.410Z,98.79
2022-08-26T04:33:52.555Z,98.78
2022-08-26T04:36:23.575Z,98.52
2022-08-26T04:38:53.162Z,98.91
2022-08-26T04:41:24.676Z,98.47
2022-08-26T04:43:54.439Z,98.83
2022-08-26T04:46:25.761Z,99.04
2022-08-26T04:48:55.908Z,98.70
2022-08-26T04:51:28.055Z,98.91
2022-08-26T04:53:58.996Z,98.97
2022-08-26T04:56:32.657Z,99.03
2022-08-26T04:59:04.137Z,99.38
2022-08-26T05:01:39.719Z,99.42
2022-08-26T05:04:09.338Z,99.21
2022-08-26T05:06:38.838Z,99.47
2022-08-26T05:09:08.965Z,99.50
2022-08-26T05:11:40.383Z,99.40
2022-08-26T05:14:11.002Z,99.32
2022-08-26T05:16:40.602Z,99.52
2022-08-26T05:19:10.443Z,99.36
2022-08-26T05:21:45.861Z,99.83
2022-08-26T05:24:18.498Z,99.77
2022-08-26T05:26:49.581Z,99.77
2022-08-26T05:29:19.212Z,99.77
2022-08-26T05:31:51.982Z,99.53
2022-08-26T05:34:21.880Z,99.62
2022-08-26T05:36:51.225Z,99.86
2022-08-26T05:39:21.432Z,99.60
2022-08-26T05:41:52.685Z,99.53
2022-08-26T05:44:22.407Z,99.68
2022-08-26T05:46:52.893Z,99.68
2022-08-26T05:49:22.628Z,99.61
2022-08-26T05:51:57.613Z,99.60
2022-08-26T05:54:27.961Z,99.73
2022-08-26T05:56:58.969Z,99.94
2022-08-26T05:59:28.241Z,99.76
2022-08-26T06:01:57.730Z,99.45
2022-08-26T06:04:28.563Z,99.51
2022-08-26T06:06:58.877Z,99.73
2022-08-26T06:09:28.530Z,99.82
2022-08-26T06:12:01.885Z,99.78
2022-08-26T06:14:31.770Z,99.66
2022-08-26T06:17:01.171Z,99.84
2022-08-26T06:19:32.954Z,99.51
2022-08-26T06:22:24.018Z,99.25
2022-08-26T06:25:12.740Z,98.78
2022-08-26T06:27:44.382Z,99.43
2022-08-26T06:30:14.755Z,99.23
2022-08-26T06:32:45.692Z,99.10
2022-08-26T06:35:15.093Z,98.96
2022-08-26T06:37:44.505Z,98.33
2022-08-26T06:40:14.390Z,98.22
2022-08-26T06:42:45.165Z,98.61
2022-08-26T06:45:14.697Z,98.65
2022-08-26T06:47:44.004Z,98.48
2022-08-26T06:50:13.528Z,98.21
2022-08-26T06:52:43.705Z,98.34
2022-08-26T06:55:13.545Z,98.12
2022-08-26T06:57:44.320Z,97.90
2022-08-26T07:00:15.496Z,97.65
2022-08-26T07:02:47.039Z,97.79
2022-08-26T07:05:16.950Z,97.29
2022-08-26T07:07:47.615Z,97.35
2022-08-26T07:10:16.931Z,97.33
2022-08-26T07:12:49.459Z,96.97
2022-08-26T07:15:18.981Z,96.88
2022-08-26T07:17:55.484Z,97.01
2022-08-26T07:20:24.773Z,97.51
2022-08-26T07:22:54.296Z,97.12
2022-08-26T07:25:23.794Z,97.26
2022-08-26T07:27:55.953Z,97.33
2022-08-26T07:30:25.759Z,97.30
2022-08-26T07:32:58.030Z,97.50
2022-08-26T07:35:28.524Z,97.31
2022-08-26T07:37:57.869Z,97.33
2022-08-26T07:40:27.331Z,97.68
2022-08-26T07:42:58.145Z,97.52
2022-08-26T07:45:30.492Z,97.51
2022-08-26T07:48:01.026Z,97.55
2022-08-26T07:50:50.241Z,97.80
2022-08-26T07:53:21.339Z,97.89
2022-08-26T07:55:50.757Z,97.87
2022-08-26T07:58:21.510Z,97.55
2022-08-26T08:00:51.100Z,96.99
2022-08-26T08:03:23.383Z,97.28
2022-08-26T08:05:53.058Z,97.41
2022-08-26T08:08:27.800Z,96.73
2022-08-26T08:10:58.937Z,96.89
2022-08-26T08:13:30.604Z,96.52
2022-08-26T08:16:01.393Z,97.11
2022-08-26T08:18:30.811Z,96.61
2022-08-26T08:21:21.359Z,96.15
2022-08-26T08:23:53.229Z,95.87
2022-08-26T08:26:23.365Z,96.25
2022-08-26T08:28:57.003Z,96.30
2022-08-26T08:31:55.978Z,95.45
2022-08-26T08:34:18.159Z,95.22
2022-08-26T08:36:48.051Z,95.13
2022-08-26T08:39:17.430Z,95.42
2022-08-26T08:42:06.029Z,94.93
2022-08-26T08:44:43.030Z,94.77
2022-08-26T08:47:21.083Z,95.49
2022-08-26T08:49:50.884Z,94.94
2022-08-26T08:52:29.038Z,95.05
2022-08-26T08:54:58.926Z,95.13
2022-08-26T08:57:39.662Z,94.79
2022-08-26T09:00:17.692Z,94.73
2022-08-26T09:02:55.011Z,94.47
2022-08-26T09:05:26.721Z,94.38
2022-08-26T09:07:59.886Z,94.03
2022-08-26T09:10:35.534Z,94.44
2022-08-26T09:13:13.734Z,94.15
2022-08-26T09:16:02.403Z,94.07
2022-08-26T09:18:42.356Z,93.99
2022-08-26T09:21:18.055Z,93.65
2022-08-26T09:23:49.624Z,93.34
2022-08-26T09:26:24.747Z,93.28
2022-08-26T09:29:00.727Z,92.91
2022-08-26T09:31:34.161Z,91.93
2022-08-26T09:34:17.880Z,91.86
2022-08-26T09:36:50.230Z,91.30
2022-08-26T09:39:33.619Z,91.00
2022-08-26T09:42:12.098Z,90.18
2022-08-26T09:44:58.026Z,89.77
2022-08-26T09:48:01.798Z,89.71
2022-08-26T09:50:34.018Z,89.17
2022-08-26T09:53:12.777Z,88.58
2022-08-26T09:55:44.831Z,88.89
2022-08-26T09:58:16.156Z,88.68
2022-08-26T10:00:56.184Z,88.06
2022-08-26T10:03:32.715Z,87.13
2022-08-26T10:06:04.752Z,86.10
2022-08-26T10:08:37.697Z,85.57
2022-08-26T10:11:13.687Z,85.24
2022-08-26T10:13:46.550Z,84.50
2022-08-26T10:16:20.301Z,84.49
2022-08-26T10:19:01.822Z,85.19
2022-08-26T10:21:35.589Z,85.27
2022-08-26T10:24:08.583Z,85.02
2022-08-26T10:26:46.113Z,84.67
2022-08-26T10:29:22.635Z,83.86
2022-08-26T10:31:58.747Z,83.93
2022-08-26T10:34:34.151Z,83.80
2022-08-26T10:37:15.548Z,83.33
2022-08-26T10:39:58.561Z,82.03
2022-08-26T10:42:35.459Z,82.28
2022-08-26T10:45:15.075Z,81.89
2022-08-26T10:47:50.812Z,81.79
2022-08-26T10:50:26.372Z,79.95
2022-08-26T10:53:05.072Z,79.50
2022-08-26T10:55:42.070Z,78.13
2022-08-26T10:58:32.855Z,77.22
2022-08-26T11:01:29.036Z,76.62
2022-08-26T11:04:07.863Z,72.83
2022-08-26T11:06:39.302Z,68.07
2022-08-26T11:09:11.865Z,59.23
2022-08-26T11:12:00.442Z,53.76
2022-08-26T11:14:53.368Z,51.51
2022-08-26T11:17:58.010Z,49.24
2022-08-26T11:20:41.929Z,52.47
2022-08-26T11:23:50.585Z,56.69
2022-08-26T11:26:43.164Z,57.76
2022-08-26T11:29:13.887Z,58.38
2022-08-26T11:31:57.513Z,60.06
2022-08-26T11:35:00.597Z,59.87
2022-08-26T11:37:37.557Z,60.98
2022-08-26T11:40:17.266Z,60.95
2022-08-26T11:42:51.703Z,60.89
2022-08-26T11:45:26.841Z,61.54
2022-08-26T11:47:56.657Z,62.18
2022-08-26T11:50:29.308Z,60.28
2022-08-26T11:53:06.294Z,61.21
2022-08-26T11:55:45.066Z,61.02
2022-08-26T11:58:17.710Z,60.62
2022-08-26T12:00:54.022Z,58.70
2022-08-26T12:03:27.610Z,57.70
2022-08-26T12:05:57.458Z,57.60
2022-08-26T12:08:31.174Z,57.90
2022-08-26T12:11:09.698Z,58.61
2022-08-26T12:13:39.484Z,59.57
2022-08-26T12:16:09.910Z,58.99
2022-08-26T12:18:40.764Z,57.64
2022-08-26T12:21:22.138Z,57.40
2022-08-26T12:23:56.345Z,56.13
2022-08-26T12:26:30.643Z,56.48
2022-08-26T12:29:02.373Z,55.13
2022-08-26T12:31:44.502Z,56.09
2022-08-26T12:34:17.968Z,56.72
2022-08-26T12:36:51.160Z,57.02
2022-08-26T12:39:28.923Z,56.80
2022-08-26T12:42:00.935Z,56.87
2022-08-26T12:44:38.939Z,56.33
2022-08-26T12:47:11.571Z,55.53
2022-08-26T12:49:42.614Z,55.26
2022-08-26T12:52:31.065Z,56.08
2022-08-26T12:55:04.272Z,55.49
2022-08-26T12:57:37.346Z,55.13
2022-08-26T13:00:28.427Z,54.46
2022-08-26T13:02:58.735Z,53.88
2022-08-26T13:05:33.124Z,53.68
2022-08-26T13:08:17.301Z,53.29
2022-08-26T13:10:48.847Z,52.87
2022-08-26T13:13:19.929Z,52.10
2022-08-26T13:15:50.153Z,52.96
2022-08-26T13:18:20.007Z,53.91
2022-08-26T13:20:49.391Z,53.05
2022-08-26T13:23:19.173Z,52.78
2022-08-26T13:25:48.831Z,54.15
2022-08-26T13:28:20.408Z,54.74
2022-08-26T13:30:50.475Z,55.33
2022-08-26T13:33:21.676Z,55.83
2022-08-26T13:35:51.267Z,56.23
2022-08-26T13:38:33.246Z,56.10
2022-08-26T13:41:04.825Z,56.08
2022-08-26T13:43:35.721Z,56.03
2022-08-26T13:46:05.375Z,56.18
2022-08-26T13:48:35.215Z,56.07
2022-08-26T13:51:08.871Z,56.30
2022-08-26T13:53:38.451Z,56.37
2022-08-26T13:56:11.310Z,56.12
2022-08-26T13:58:42.146Z,55.78
2022-08-26T14:01:11.833Z,55.75
2022-08-26T14:03:43.845Z,54.98
2022-08-26T14:06:13.774Z,55.11
2022-08-26T14:08:44.460Z,55.44
2022-08-26T14:11:14.150Z,56.02
2022-08-26T14:13:45.276Z,53.48
2022-08-26T14:16:18.796Z,53.12
2022-08-26T14:18:50.731Z,52.20
2022-08-26T14:21:20.902Z,50.51
2022-08-26T14:23:50.310Z,51.40
2022-08-26T14:26:28.840Z,51.72
2022-08-26T14:29:02.788Z,52.26
2022-08-26T14:31:34.800Z,52.49
2022-08-26T14:34:07.559Z,53.36
2022-08-26T14:36:38.276Z,54.17
2022-08-26T14:39:10.646Z,53.72
2022-08-26T14:41:54.410Z,53.20
2022-08-26T14:44:29.518Z,54.01
2022-08-26T14:47:01.141Z,54.44
2022-08-26T14:49:31.664Z,54.68
2022-08-26T14:52:01.501Z,55.17
2022-08-26T14:54:30.300Z,55.79
2022-08-26T14:57:02.412Z,55.80
2022-08-26T14:59:35.298Z,55.75
2022-08-26T15:02:05.982Z,55.67
2022-08-26T15:04:35.972Z,56.21
2022-08-26T15:07:06.490Z,56.82
2022-08-26T15:09:38.593Z,56.68
2022-08-26T15:12:08.822Z,57.24
2022-08-26T15:14:39.623Z,57.43
2022-08-26T15:17:09.498Z,57.03
2022-08-26T15:19:38.789Z,57.22
2022-08-26T15:22:08.111Z,57.90
2022-08-26T15:24:37.893Z,57.56
2022-08-26T15:27:07.382Z,57.02
2022-08-26T15:29:39.245Z,56.62
2022-08-26T15:32:10.387Z,57.35
2022-08-26T15:34:40.108Z,57.98
2022-08-26T15:37:09.779Z,57.55
2022-08-26T15:39:39.569Z,57.53
2022-08-26T15:42:08.866Z,57.34
2022-08-26T15:44:38.636Z,57.95
2022-08-26T15:47:09.250Z,58.15
2022-08-26T15:49:38.948Z,58.02
2022-08-26T15:52:09.418Z,57.98
2022-08-26T15:54:39.700Z,58.17
2022-08-26T15:57:12.360Z,58.26
2022-08-26T15:59:43.154Z,58.22
2022-08-26T16:02:14.328Z,57.76
2022-08-26T16:04:43.746Z,58.11
2022-08-26T16:07:13.086Z,57.82
2022-08-26T16:09:42.493Z,58.37
2022-08-26T16:12:11.999Z,58.02
2022-08-26T16:14:43.622Z,57.98
2022-08-26T16:17:14.462Z,58.32
2022-08-26T16:19:43.839Z,58.99
2022-08-26T16:22:13.214Z,58.97
2022-08-26T16:24:42.846Z,59.21
2022-08-26T16:27:13.082Z,59.76
2022-08-26T16:29:43.003Z,60.04
2022-08-26T16:32:13.790Z,60.27
2022-08-26T16:34:47.000Z,60.43
2022-08-26T16:37:26.554Z,60.19
2022-08-26T16:39:55.996Z,59.94
2022-08-26T16:42:25.685Z,60.04
2022-08-26T16:44:54.833Z,60.86
2022-08-26T16:47:26.488Z,60.09
2022-08-26T16:49:55.962Z,59.68
2022-08-26T16:52:25.914Z,60.10
2022-08-26T16:55:01.024Z,59.61
2022-08-26T16:57:30.769Z,59.59
2022-08-26T17:00:51.094Z,59.67
2022-08-26T17:03:23.892Z,59.82
2022-08-26T17:05:53.719Z,60.19
2022-08-26T17:08:28.473Z,60.76
2022-08-26T17:11:00.544Z,61.66
2022-08-26T17:13:35.429Z,62.55
2022-08-26T17:16:06.589Z,63.28
2022-08-26T17:18:38.781Z,64.21
2022-08-26T17:21:10.520Z,64.78
2022-08-26T17:23:41.365Z,64.63
2022-08-26T17:26:12.305Z,65.74
2022-08-26T17:28:42.574Z,65.97
2022-08-26T17:31:14.381Z,66.70
2022-08-26T17:33:47.850Z,66.88
2022-08-26T17:36:20.691Z,67.26
2022-08-26T17:38:50.340Z,67.48
2022-08-26T17:41:23.641Z,67.65
2022-08-26T17:43:53.226Z,68.27
2022-08-26T17:46:22.864Z,68.31
2022-08-26T17:48:53.596Z,68.54
2022-08-26T17:51:23.534Z,68.79
2022-08-26T17:53:53.652Z,68.94
2022-08-26T17:56:26.195Z,69.45
2022-08-26T17:58:57.691Z,69.81
2022-08-26T18:01:32.006Z,69.88
2022-08-26T18:04:02.817Z,70.26
2022-08-26T18:06:32.701Z,70.57
2022-08-26T18:09:02.786Z,70.23
2022-08-26T18:11:33.885Z,70.73
2022-08-26T18:14:04.492Z,70.83
2022-08-26T18:16:38.271Z,71.09
2022-08-26T18:19:09.701Z,70.92
2022-08-26T18:21:38.950Z,71.02
2022-08-26T18:24:13.827Z,71.04
2022-08-26T18:26:48.862Z,71.37
2022-08-26T18:29:20.419Z,71.61
2022-08-26T18:31:49.721Z,71.50
2022-08-26T18:34:21.048Z,71.81
2022-08-26T18:36:51.674Z,72.23
2022-08-26T18:39:23.493Z,72.28
2022-08-26T18:41:54.269Z,72.51
2022-08-26T18:44:25.535Z,72.59
2022-08-26T18:46:55.208Z,72.40
2022-08-26T18:49:26.064Z,72.59
2022-08-26T18:51:55.729Z,73.00
2022-08-26T18:54:25.188Z,73.20
2022-08-26T18:56:54.698Z,73.10
2022-08-26T18:59:28.409Z,73.24
2022-08-26T19:02:00.174Z,73.20
2022-08-26T19:04:31.241Z,73.52
2022-08-26T19:07:00.818Z,73.49
2022-08-26T19:09:31.595Z,73.53
2022-08-26T19:12:02.623Z,73.56
2022-08-26T19:14:33.233Z,73.73
2022-08-26T19:17:02.875Z,73.82
2022-08-26T19:19:33.836Z,74.01
2022-08-26T19:22:03.594Z,74.12
2022-08-26T19:24:33.432Z,74.18
2022-08-26T19:27:02.970Z,74.28
2022-08-26T19:29:34.675Z,74.34
2022-08-26T19:32:05.321Z,74.31
2022-08-26T19:34:36.646Z,74.47
2022-08-26T19:37:06.078Z,74.56
2022-08-26T19:39:36.159Z,74.33
2022-08-26T19:42:05.800Z,74.78
2022-08-26T19:44:52.593Z,74.99
2022-08-26T19:47:22.315Z,75.06
2022-08-26T19:49:56.490Z,75.18
2022-08-26T19:52:29.888Z,75.07
2022-08-26T19:54:59.586Z,75.15
2022-08-26T19:57:29.474Z,75.41
2022-08-26T19:59:59.774Z,75.50
2022-08-26T20:02:29.579Z,75.83
2022-08-26T20:05:00.344Z,75.90
2022-08-26T20:07:29.583Z,75.80
2022-08-26T20:09:59.667Z,76.07
2022-08-26T20:12:29.294Z,76.12
2022-08-26T20:14:58.702Z,76.25
2022-08-26T20:17:28.232Z,76.00
2022-08-26T20:20:32.612Z,76.10
2022-08-26T20:23:06.109Z,76.08
2022-08-26T20:25:35.925Z,76.27
2022-08-26T20:28:05.798Z,76.11
2022-08-26T20:30:35.398Z,76.28
2022-08-26T20:33:04.786Z,76.44
2022-08-26T20:35:34.617Z,76.39
2022-08-26T20:38:05.793Z,76.59
2022-08-26T20:40:35.684Z,76.74
2022-08-26T20:43:06.141Z,76.71
2022-08-26T20:45:35.733Z,76.39
2022-08-26T20:48:05.282Z,76.48
2022-08-26T20:50:35.162Z,76.86
2022-08-26T20:53:06.000Z,76.46
2022-08-26T20:55:35.754Z,76.88
2022-08-26T20:58:05.656Z,76.77
2022-08-26T21:00:34.861Z,77.16
2022-08-26T21:03:04.783Z,77.07
2022-08-26T21:05:34.626Z,77.07
2022-08-26T21:08:05.422Z,77.45
2022-08-26T21:10:35.237Z,77.06
2022-08-26T21:13:05.463Z,77.27
2022-08-26T21:15:35.277Z,77.42
2022-08-26T21:18:05.146Z,77.39
2022-08-26T21:20:34.606Z,77.33
2022-08-26T21:23:05.880Z,77.80
2022-08-26T21:25:35.492Z,77.65
2022-08-26T21:28:05.477Z,77.79
2022-08-26T21:30:37.872Z,78.13
2022-08-26T21:33:07.800Z,77.84
2022-08-26T21:35:37.251Z,78.24
2022-08-26T21:38:08.085Z,78.33
2022-08-26T21:40:37.787Z,78.37
2022-08-26T21:43:08.299Z,78.05
2022-08-26T21:45:43.486Z,78.47
2022-08-26T21:48:13.251Z,78.58
2022-08-26T21:50:43.036Z,78.40
2022-08-26T21:53:15.543Z,78.37
2022-08-26T21:55:45.633Z,78.54
2022-08-26T21:58:15.739Z,78.52
2022-08-26T22:00:50.248Z,78.41
2022-08-26T22:03:20.231Z,78.74
2022-08-26T22:05:51.374Z,78.52
2022-08-26T22:08:24.294Z,78.96
2022-08-26T22:10:57.948Z,78.90
2022-08-26T22:13:29.558Z,79.05
2022-08-26T22:16:00.057Z,78.78
2022-08-26T22:18:31.647Z,79.08
2022-08-26T22:21:03.448Z,78.94
2022-08-26T22:23:35.417Z,78.87
2022-08-26T22:26:04.959Z,78.85
2022-08-26T22:28:34.966Z,78.74
2022-08-26T22:31:04.442Z,78.87
2022-08-26T22:33:33.794Z,78.92
2022-08-26T22:36:03.571Z,79.34
2022-08-26T22:38:34.312Z,79.73
2022-08-26T22:41:08.223Z,79.41
2022-08-26T22:43:38.503Z,79.19
2022-08-26T22:46:09.852Z,79.08
2022-08-26T22:48:40.667Z,79.33
2022-08-26T22:51:10.070Z,79.21
2022-08-26T22:53:42.482Z,79.13
2022-08-26T22:56:12.723Z,79.35
2022-08-26T22:58:42.468Z,79.38
2022-08-26T23:01:11.893Z,79.30
2022-08-26T23:03:41.498Z,79.29
2022-08-26T23:06:11.790Z,79.63
2022-08-26T23:08:45.356Z,79.36
2022-08-26T23:11:15.656Z,79.76
2022-08-26T23:13:45.038Z,79.75
2022-08-26T23:16:14.986Z,79.78
2022-08-26T23:18:45.454Z,80.00
2022-08-26T23:21:15.304Z,79.72
2022-08-26T23:23:46.386Z,79.69
2022-08-26T23:26:17.738Z,80.03
2022-08-26T23:28:47.471Z,79.96
2022-08-26T23:31:17.101Z,80.01
2022-08-26T23:34:04.160Z,79.90
2022-08-26T23:36:35.037Z,80.00
2022-08-26T23:39:06.785Z,79.95
2022-08-26T23:41:36.465Z,80.23
2022-08-26T23:44:06.251Z,80.04
2022-08-26T23:46:36.199Z,80.18
2022-08-26T23:49:06.864Z,79.85
2022-08-26T23:51:53.810Z,80.03
2022-08-26T23:54:24.904Z,79.95
2022-08-26T23:56:54.337Z,79.86
2022-08-26T23:59:23.702Z,79.71
